Time;durP1;ratioP1;P1;durP2;ratioP2;P2;SDS_P1;SDS_P2;PMS_P1;PMS_P2;Temp;Humidity;BMP_temperature;BMP_pressure;BME280_temperature;BME280_humidity;BME280_pressure;Samples;Min_cycle;Max_cycle;Signal;HPM_P1;HPM_P2
2022/05/08 00:00:52;;;;;;;;;;;;;;;24.05;18.42;100479.69;5096868;28;19916;-75
2022/05/08 00:03:18;;;;;;;;;;;;;;;24.04;18.33;100478.03;5096570;28;20006;-74
2022/05/08 00:05:43;;;;;;;;;;;;;;;24.04;18.23;100486.22;5096719;28;19927;-76
2022/05/08 00:08:08;;;;;;;;;;;;;;;24.04;18.36;100482.69;5096951;28;19928;-74
2022/05/08 00:10:33;;;;;;;;;;;;;;;24.05;18.29;100490.63;5096634;28;20354;-76
2022/05/08 00:12:59;;;;;;;;;;;;;;;24.04;18.39;100488.16;5096245;28;19916;-74
2022/05/08 00:15:24;;;;;;;;;;;;;;;24.03;18.45;100492.00;5096673;28;19916;-75
2022/05/08 00:17:49;;;;;;;;;;;;;;;24.04;18.23;100493.63;5096243;28;19939;-74
2022/05/08 00:20:15;;;;;;;;;;;;;;;24.03;17.98;100498.28;5095677;28;20022;-75
2022/05/08 00:22:43;;;;;;;;;;;;;;;24.02;18.30;100502.06;5096315;28;19916;-73
2022/05/08 00:25:09;;;;;;;;;;;;;;;24.03;18.24;100503.72;5105901;28;20270;-75
2022/05/08 00:27:34;;;;;;;;;;;;;;;24.05;17.97;100500.72;5116629;28;19916;-73
2022/05/08 00:29:59;;;;;;;;;;;;;;;24.04;17.82;100501.81;5116520;28;20018;-74
2022/05/08 00:32:25;;;;;;;;;;;;;;;24.05;18.20;100506.19;5116460;28;19916;-74
2022/05/08 00:34:50;;;;;;;;;;;;;;;24.04;17.94;100499.88;5116507;28;19922;-75
2022/05/08 00:37:15;;;;;;;;;;;;;;;24.02;17.87;100504.81;5098283;28;19938;-73
2022/05/08 00:39:43;;;;;;;;;;;;;;;24.03;17.74;100508.38;5098121;28;20290;-74
2022/05/08 00:42:08;;;;;;;;;;;;;;;24.02;17.97;100513.00;5116074;28;19938;-74
2022/05/08 00:44:33;;;;;;;;;;;;;;;24.02;17.83;100512.19;5116880;28;19916;-76
2022/05/08 00:46:59;;;;;;;;;;;;;;;24.03;17.60;100506.47;5100795;28;19916;-73
2022/05/08 00:49:24;;;;;;;;;;;;;;;24.03;17.81;100509.19;5095591;28;19923;-75
2022/05/08 00:51:49;;;;;;;;;;;;;;;24.02;17.81;100506.72;5095962;28;19916;-74
2022/05/08 00:54:15;;;;;;;;;;;;;;;24.00;17.65;100515.19;5095695;28;19923;-75
2022/05/08 00:56:40;;;;;;;;;;;;;;;24.00;17.64;100509.72;5095377;28;20370;-74
2022/05/08 00:59:05;;;;;;;;;;;;;;;23.99;17.59;100517.09;5095718;28;19923;-74
2022/05/08 01:01:30;;;;;;;;;;;;;;;24.02;17.58;100517.66;5095617;28;20355;-74
2022/05/08 01:03:56;;;;;;;;;;;;;;;23.99;17.58;100517.09;5095398;28;20400;-74
2022/05/08 01:06:21;;;;;;;;;;;;;;;24.02;17.34;100514.91;5095300;28;19916;-74
2022/05/08 01:08:47;;;;;;;;;;;;;;;24.03;17.53;100514.66;5095859;28;19924;-73
2022/05/08 01:11:12;;;;;;;;;;;;;;;24.02;17.43;100523.91;5095145;28;19966;-74
2022/05/08 01:13:38;;;;;;;;;;;;;;;24.01;17.44;100519.56;5095261;28;19916;-72
2022/05/08 01:16:11;;;;;;;;;;;;;;;24.02;17.60;100528.56;5095452;28;20274;-74
2022/05/08 01:18:37;;;;;;;;;;;;;;;24.01;17.45;100527.75;5095428;28;20358;-74
2022/05/08 01:21:03;;;;;;;;;;;;;;;24.02;17.44;100529.38;5094999;28;19917;-74
2022/05/08 01:23:29;;;;;;;;;;;;;;;24.00;17.26;100534.28;5095355;28;19916;-74
2022/05/08 01:25:54;;;;;;;;;;;;;;;23.99;17.39;100536.22;5078405;28;20350;-74
2022/05/08 01:28:20;;;;;;;;;;;;;;;24.01;17.24;100541.41;5074709;28;19917;-75
2022/05/08 01:30:46;;;;;;;;;;;;;;;23.98;17.20;100545.50;5074566;28;20375;-75
2022/05/08 01:33:12;;;;;;;;;;;;;;;23.99;17.22;100546.28;5074049;28;19916;-74
2022/05/08 01:35:37;;;;;;;;;;;;;;;23.97;17.20;100543.03;5074639;28;19924;-75
2022/05/08 01:38:03;;;;;;;;;;;;;;;23.98;17.33;100544.69;5074673;28;19920;-76
2022/05/08 01:40:30;;;;;;;;;;;;;;;23.98;17.26;100539.22;5075138;28;20350;-74
2022/05/08 01:42:55;;;;;;;;;;;;;;;23.98;17.12;100540.03;5074170;28;19916;-73
2022/05/08 01:45:20;;;;;;;;;;;;;;;23.99;17.21;100552.59;5075163;28;19948;-74
2022/05/08 01:50:29;;;;;;;;;;;;;;;23.98;17.26;100558.31;5094602;28;20004;-73
2022/05/08 01:52:54;;;;;;;;;;;;;;;23.98;17.07;100561.88;5094407;28;19920;-75
2022/05/08 01:55:20;;;;;;;;;;;;;;;23.97;16.99;100570.31;5094370;28;19916;-73
2022/05/08 01:57:45;;;;;;;;;;;;;;;23.97;17.13;100575.78;5094316;28;19916;-75
2022/05/08 02:00:10;;;;;;;;;;;;;;;23.97;16.93;100567.59;5094460;28;19923;-72
2022/05/08 02:02:36;;;;;;;;;;;;;;;23.97;17.19;100564.88;5094662;28;19916;-75
2022/05/08 02:05:01;;;;;;;;;;;;;;;23.95;17.16;100567.88;5094192;28;20281;-73
2022/05/08 02:07:27;;;;;;;;;;;;;;;23.98;17.02;100577.44;5094426;28;19931;-75
2022/05/08 02:09:52;;;;;;;;;;;;;;;23.99;16.94;100573.59;5094506;28;20011;-74
2022/05/08 02:12:17;;;;;;;;;;;;;;;23.98;17.12;100577.44;5094445;28;19943;-74
2022/05/08 02:14:43;;;;;;;;;;;;;;;23.98;16.81;100577.44;5094028;28;19920;-73
2022/05/08 02:17:09;;;;;;;;;;;;;;;23.98;16.91;100571.97;5094077;28;19941;-73
2022/05/08 02:19:34;;;;;;;;;;;;;;;23.97;16.96;100575.78;5094477;28;19983;-76
2022/05/08 02:21:59;;;;;;;;;;;;;;;23.96;16.91;100576.91;5094897;28;19923;-73
2022/05/08 02:24:24;;;;;;;;;;;;;;;23.97;16.98;100575.78;5097907;28;20322;-76
2022/05/08 02:26:50;;;;;;;;;;;;;;;23.98;16.81;100574.69;5114386;28;19915;-73
2022/05/08 02:29:15;;;;;;;;;;;;;;;23.97;17.01;100575.78;5096624;28;19920;-74
2022/05/08 02:31:40;;;;;;;;;;;;;;;23.95;17.19;100583.44;5114541;28;20300;-74
2022/05/08 02:34:05;;;;;;;;;;;;;;;23.96;16.86;100583.16;5114250;28;19922;-73
2022/05/08 02:36:31;;;;;;;;;;;;;;;23.94;16.95;100581.78;5114312;28;20015;-73
2022/05/08 02:38:56;;;;;;;;;;;;;;;23.98;16.82;100591.09;5114648;28;19923;-73
2022/05/08 02:41:21;;;;;;;;;;;;;;;23.97;16.74;100598.47;5114299;28;19923;-75
2022/05/08 02:43:46;;;;;;;;;;;;;;;23.97;16.95;100589.44;5116524;28;19916;-73
2022/05/08 02:46:12;;;;;;;;;;;;;;;23.95;16.76;100600.63;5111536;28;20065;-75
2022/05/08 02:48:37;;;;;;;;;;;;;;;23.97;16.80;100608.53;5097868;28;20289;-72
2022/05/08 02:51:05;;;;;;;;;;;;;;;23.96;16.72;100596.00;5097835;28;20008;-74
2022/05/08 02:53:31;;;;;;;;;;;;;;;23.96;16.88;100596.81;5098232;28;19916;-73
2022/05/08 02:58:39;;;;;;;;;;;;;;;23.96;16.58;100605.00;5098133;28;20405;-74
2022/05/08 03:01:05;;;;;;;;;;;;;;;23.95;16.65;100610.72;5097984;28;19916;-73
2022/05/08 03:03:30;;;;;;;;;;;;;;;23.96;16.63;100607.72;5098035;28;20270;-75
2022/05/08 03:05:55;;;;;;;;;;;;;;;23.94;16.60;100612.66;5097954;28;19998;-74
2022/05/08 03:08:21;;;;;;;;;;;;;;;23.94;16.58;100614.53;5098219;28;19931;-75
2022/05/08 03:13:32;;;;;;;;;;;;;;;23.94;16.78;100628.19;5097745;28;20386;-73
2022/05/08 03:15:57;;;;;;;;;;;;;;;23.94;16.76;100633.63;5097325;28;19916;-76
2022/05/08 03:18:23;;;;;;;;;;;;;;;23.93;16.56;100624.63;5097577;28;19924;-74
2022/05/08 03:20:48;;;;;;;;;;;;;;;23.93;16.63;100634.75;5097545;28;20368;-74
2022/05/08 03:23:14;;;;;;;;;;;;;;;23.95;16.48;100638.03;5097667;28;20255;-73
2022/05/08 03:25:39;;;;;;;;;;;;;;;23.93;16.79;100638.28;5097038;28;19921;-73
2022/05/08 03:28:04;;;;;;;;;;;;;;;23.94;16.58;100647.28;5097168;28;19970;-74
2022/05/08 03:30:30;;;;;;;;;;;;;;;23.95;16.67;100646.22;5097414;28;19942;-73
2022/05/08 03:32:56;;;;;;;;;;;;;;;23.95;16.60;100654.41;5097070;28;20278;-74
2022/05/08 03:35:21;;;;;;;;;;;;;;;23.94;16.65;100650.84;5097268;28;19940;-73
2022/05/08 03:37:47;;;;;;;;;;;;;;;23.96;16.55;100661.50;5097382;28;20373;-73
2022/05/08 03:40:12;;;;;;;;;;;;;;;23.94;16.63;100648.13;5096820;28;19979;-73
2022/05/08 03:42:37;;;;;;;;;;;;;;;23.93;16.69;100662.84;5096854;28;19923;-74
2022/05/08 03:45:03;;;;;;;;;;;;;;;23.93;16.72;100668.31;5096792;28;19940;-73
2022/05/08 03:47:28;;;;;;;;;;;;;;;23.94;16.54;100669.97;5114028;28;19923;-74
2022/05/08 03:49:53;;;;;;;;;;;;;;;23.95;16.61;100665.31;5117451;28;20315;-73
2022/05/08 03:52:19;;;;;;;;;;;;;;;23.94;16.61;100674.59;5117116;28;19916;-73
2022/05/08 03:54:44;;;;;;;;;;;;;;;23.94;16.72;100674.59;5116488;28;19916;-73
2022/05/08 03:57:09;;;;;;;;;;;;;;;23.94;16.45;100685.50;5117345;28;20357;-74
2022/05/08 03:59:34;;;;;;;;;;;;;;;23.95;16.72;100684.41;5117213;28;19939;-73
2022/05/08 04:02:00;;;;;;;;;;;;;;;23.96;16.68;100680.63;5117809;28;19923;-74
2022/05/08 04:04:25;;;;;;;;;;;;;;;23.95;16.42;100690.69;5116882;28;20006;-73
2022/05/08 04:06:50;;;;;;;;;;;;;;;23.94;16.50;100688.22;5116853;28;19924;-74
2022/05/08 04:09:18;;;;;;;;;;;;;;;23.95;16.59;100692.59;5117105;28;19954;-74
2022/05/08 04:11:43;;;;;;;;;;;;;;;23.94;16.68;100696.41;5117086;28;19955;-75
2022/05/08 04:14:09;;;;;;;;;;;;;;;23.95;16.66;100698.06;5116657;28;19966;-72
2022/05/08 04:16:35;;;;;;;;;;;;;;;23.95;16.34;100703.53;5116702;28;19915;-76
2022/05/08 04:19:00;;;;;;;;;;;;;;;23.94;16.46;100700.00;5116646;28;19915;-74
2022/05/08 04:21:26;;;;;;;;;;;;;;;23.94;16.59;100696.41;5116928;28;19920;-75
2022/05/08 04:26:35;;;;;;;;;;;;;;;23.94;16.55;100701.88;5116840;28;19926;-74
2022/05/08 04:29:00;;;;;;;;;;;;;;;23.92;16.57;100704.91;5116462;28;19916;-74
2022/05/08 04:31:25;;;;;;;;;;;;;;;23.92;16.55;100701.34;5116385;28;19922;-75
2022/05/08 04:33:51;;;;;;;;;;;;;;;23.92;16.68;100698.59;5116636;28;19920;-74
2022/05/08 04:36:16;;;;;;;;;;;;;;;23.94;16.69;100704.59;5116656;28;20281;-75
2022/05/08 04:38:41;;;;;;;;;;;;;;;23.92;16.46;100707.63;5116447;28;19923;-73
2022/05/08 04:41:07;;;;;;;;;;;;;;;23.92;16.46;100704.91;5116654;28;19986;-74
2022/05/08 04:43:32;;;;;;;;;;;;;;;23.93;16.45;100716.63;5116662;28;20222;-73
2022/05/08 04:45:57;;;;;;;;;;;;;;;23.93;16.61;100719.38;5112451;28;19920;-74
2022/05/08 04:48:23;;;;;;;;;;;;;;;23.91;16.56;100722.34;5077879;28;19924;-72
2022/05/08 04:50:48;;;;;;;;;;;;;;;23.93;16.36;100728.38;5095933;28;19954;-75
2022/05/08 04:53:13;;;;;;;;;;;;;;;23.93;16.28;100722.09;5095914;28;20015;-73
2022/05/08 04:55:38;;;;;;;;;;;;;;;23.95;16.42;100720.72;5095963;28;19916;-75
2022/05/08 04:58:04;;;;;;;;;;;;;;;23.95;16.72;100730.81;5095892;28;19946;-72
2022/05/08 05:00:29;;;;;;;;;;;;;;;23.95;16.61;100739.00;5095761;28;19959;-74
2022/05/08 05:02:55;;;;;;;;;;;;;;;23.95;16.33;100739.00;5095823;28;19916;-72
2022/05/08 05:05:20;;;;;;;;;;;;;;;23.93;16.43;100736.56;5096463;28;19986;-75
2022/05/08 05:07:45;;;;;;;;;;;;;;;23.95;16.59;100739.00;5115176;28;19915;-74
2022/05/08 05:10:10;;;;;;;;;;;;;;;23.94;16.73;100743.66;5120179;28;19924;-76
2022/05/08 05:12:36;;;;;;;;;;;;;;;23.96;16.60;100746.13;5120168;28;19911;-74
2022/05/08 05:15:01;;;;;;;;;;;;;;;23.95;16.62;100742.56;5120277;28;19920;-73
2022/05/08 05:17:26;;;;;;;;;;;;;;;23.95;16.71;100748.00;5120267;28;19904;-74
2022/05/08 05:19:52;;;;;;;;;;;;;;;23.95;16.75;100748.00;5120125;28;19935;-76
2022/05/08 05:22:20;;;;;;;;;;;;;;;23.95;16.85;100752.66;5120219;28;19911;-73
2022/05/08 05:24:45;;;;;;;;;;;;;;;23.96;16.73;100755.13;5119935;28;19915;-75
2022/05/08 05:27:11;;;;;;;;;;;;;;;23.95;16.87;100741.75;5119637;28;19940;-74
2022/05/08 05:29:36;;;;;;;;;;;;;;;23.97;16.81;100755.94;5120014;28;19997;-74
2022/05/08 05:32:01;;;;;;;;;;;;;;;23.98;16.92;100755.69;5120003;28;19911;-75
2022/05/08 05:34:26;;;;;;;;;;;;;;;23.99;16.82;100753.75;5119950;28;19950;-75
2022/05/08 05:36:52;;;;;;;;;;;;;;;23.98;16.96;100757.59;5119895;28;19904;-74
2022/05/08 05:39:17;;;;;;;;;;;;;;;23.99;16.78;100756.47;5119769;28;19904;-74
2022/05/08 05:41:42;;;;;;;;;;;;;;;24.00;16.81;100760.88;5119211;28;19987;-74
2022/05/08 05:44:07;;;;;;;;;;;;;;;23.99;16.84;100759.22;5119566;28;19916;-75
2022/05/08 05:49:17;;;;;;;;;;;;;;;24.01;16.85;100765.25;5118590;28;19926;-75
2022/05/08 05:51:42;;;;;;;;;;;;;;;24.01;16.91;100767.97;5095822;28;19955;-76
2022/05/08 05:54:07;;;;;;;;;;;;;;;24.01;16.63;100767.97;5094815;28;19939;-74
2022/05/08 05:56:32;;;;;;;;;;;;;;;23.98;16.66;100772.06;5095077;28;19992;-75
2022/05/08 05:58:58;;;;;;;;;;;;;;;23.99;16.72;100770.13;5094415;28;19999;-74
2022/05/08 06:01:23;;;;;;;;;;;;;;;23.98;16.53;100773.97;5094692;28;19927;-74
2022/05/08 06:03:48;;;;;;;;;;;;;;;23.99;16.78;100775.59;5094488;28;20362;-74
2022/05/08 06:06:14;;;;;;;;;;;;;;;23.99;16.77;100781.91;5094595;28;19942;-74
2022/05/08 06:08:40;;;;;;;;;;;;;;;23.99;16.67;100779.16;5094423;28;19924;-75
2022/05/08 06:11:06;;;;;;;;;;;;;;;24.00;16.64;100778.06;5094486;28;20267;-74
2022/05/08 06:13:32;;;;;;;;;;;;;;;24.02;16.66;100780.53;5094151;28;20423;-75
2022/05/08 06:15:58;;;;;;;;;;;;;;;24.04;16.48;100786.53;5094083;28;19916;-75
2022/05/08 06:18:24;;;;;;;;;;;;;;;24.04;16.68;100786.53;5094019;28;19920;-74
2022/05/08 06:20:49;;;;;;;;;;;;;;;24.06;16.57;100781.66;5094302;28;20263;-76
2022/05/08 06:23:14;;;;;;;;;;;;;;;24.08;16.59;100789.56;5094300;28;19923;-74
2022/05/08 06:25:41;;;;;;;;;;;;;;;24.09;16.77;100791.19;5093859;28;20362;-75
2022/05/08 06:28:07;;;;;;;;;;;;;;;24.08;16.57;100790.38;5094071;28;19916;-74
2022/05/08 06:30:32;;;;;;;;;;;;;;;24.10;16.62;100798.31;5094368;28;19917;-75
2022/05/08 06:33:00;;;;;;;;;;;;;;;24.12;16.76;100798.84;5093900;28;20382;-74
2022/05/08 06:35:26;;;;;;;;;;;;;;;24.12;16.58;100796.94;5093790;28;20015;-74
2022/05/08 06:37:51;;;;;;;;;;;;;;;24.12;16.77;100796.94;5093869;28;20052;-74
2022/05/08 06:40:17;;;;;;;;;;;;;;;24.13;16.50;100804.06;5093875;28;19923;-74
2022/05/08 06:42:43;;;;;;;;;;;;;;;24.15;16.62;100804.59;5094179;28;19916;-74
2022/05/08 06:45:09;;;;;;;;;;;;;;;24.16;16.65;100806.25;5094099;28;19916;-75
2022/05/08 06:47:34;;;;;;;;;;;;;;;24.15;16.54;100804.59;5093626;28;20439;-73
2022/05/08 06:49:59;;;;;;;;;;;;;;;24.17;16.68;100804.34;5094095;28;19917;-75
2022/05/08 06:52:24;;;;;;;;;;;;;;;24.17;16.45;100801.59;5094013;28;20366;-74
2022/05/08 06:54:50;;;;;;;;;;;;;;;24.18;16.41;100812.25;5093432;28;20073;-76
2022/05/08 06:57:15;;;;;;;;;;;;;;;24.19;16.75;100807.63;5093945;28;19916;-73
2022/05/08 07:02:27;;;;;;;;;;;;;;;24.21;16.61;100821.00;5094055;28;19970;-75
2022/05/08 07:04:52;;;;;;;;;;;;;;;24.19;16.34;100819.34;5093891;28;19924;-73
2022/05/08 07:07:18;;;;;;;;;;;;;;;24.23;16.35;100821.53;5093552;28;20397;-76
2022/05/08 07:09:44;;;;;;;;;;;;;;;24.23;16.58;100824.28;5093562;28;19920;-73
2022/05/08 07:12:09;;;;;;;;;;;;;;;24.22;16.58;100817.19;5093836;28;19916;-75
2022/05/08 07:14:34;;;;;;;;;;;;;;;24.23;16.36;100829.75;5093351;28;20362;-74
2022/05/08 07:17:00;;;;;;;;;;;;;;;24.22;16.56;100822.66;5093398;28;19916;-74
2022/05/08 07:19:25;;;;;;;;;;;;;;;24.24;16.43;100826.75;5093437;28;19916;-73
2022/05/08 07:21:50;;;;;;;;;;;;;;;24.25;16.15;100833.00;5093787;28;19916;-74
2022/05/08 07:24:16;;;;;;;;;;;;;;;24.25;16.28;100831.13;5072688;28;20376;-74
2022/05/08 07:26:41;;;;;;;;;;;;;;;24.25;16.20;100838.47;5073549;28;19951;-74
2022/05/08 07:29:07;;;;;;;;;;;;;;;24.25;16.21;100839.31;5073438;28;20270;-74
2022/05/08 07:31:32;;;;;;;;;;;;;;;24.25;16.22;100839.31;5076774;28;20334;-74
2022/05/08 07:36:41;;;;;;;;;;;;;;;24.27;16.19;100850.78;5077213;28;20317;-73
2022/05/08 07:39:07;;;;;;;;;;;;;;;24.28;16.28;100854.34;5076934;28;19916;-75
2022/05/08 07:41:32;;;;;;;;;;;;;;;24.30;16.29;100857.63;5076726;28;20366;-73
2022/05/08 07:43:57;;;;;;;;;;;;;;;24.30;16.16;100857.63;5076937;28;19917;-75
2022/05/08 07:46:23;;;;;;;;;;;;;;;24.32;16.16;100866.38;5080227;28;20384;-72
2022/05/08 07:48:49;;;;;;;;;;;;;;;24.31;16.05;100871.00;5097036;28;19920;-75
2022/05/08 07:51:14;;;;;;;;;;;;;;;24.30;15.94;100872.13;5096804;28;20270;-73
2022/05/08 07:53:39;;;;;;;;;;;;;;;24.30;16.01;100876.72;5097086;28;19916;-75
2022/05/08 07:56:05;;;;;;;;;;;;;;;24.29;16.01;100881.38;5096570;28;19962;-73
2022/05/08 07:58:33;;;;;;;;;;;;;;;24.30;16.01;100879.47;5096722;28;19916;-74
2022/05/08 08:00:58;;;;;;;;;;;;;;;24.32;15.78;100882.78;5096934;28;19923;-75
2022/05/08 08:03:24;;;;;;;;;;;;;;;24.33;15.68;100889.84;5096465;28;19920;-73
2022/05/08 08:05:49;;;;;;;;;;;;;;;24.31;15.66;100892.84;5096732;28;19924;-76
2022/05/08 08:08:16;;;;;;;;;;;;;;;24.32;15.48;100899.16;5096887;28;19924;-73
2022/05/08 08:10:41;;;;;;;;;;;;;;;24.32;15.62;100893.69;5096682;28;19916;-75
2022/05/08 08:13:06;;;;;;;;;;;;;;;24.32;15.35;100899.97;5096512;28;19920;-73
2022/05/08 08:15:32;;;;;;;;;;;;;;;24.33;15.33;100895.31;5096211;28;19942;-75
2022/05/08 08:17:57;;;;;;;;;;;;;;;24.31;15.39;100898.31;5096561;28;19920;-74
2022/05/08 08:20:22;;;;;;;;;;;;;;;24.31;15.32;100898.31;5096451;28;19916;-74
2022/05/08 08:22:48;;;;;;;;;;;;;;;24.32;15.42;100905.44;5096419;28;20363;-74
2022/05/08 08:25:14;;;;;;;;;;;;;;;24.32;15.39;100910.09;5106572;28;19923;-74
2022/05/08 08:27:39;;;;;;;;;;;;;;;24.33;15.15;100908.97;5116773;28;20338;-73
2022/05/08 08:30:04;;;;;;;;;;;;;;;24.34;15.41;100925.09;5116780;28;19958;-74
2022/05/08 08:32:32;;;;;;;;;;;;;;;24.35;15.20;100920.47;5116364;28;19923;-75
2022/05/08 08:34:58;;;;;;;;;;;;;;;24.35;15.15;100917.72;5116478;28;19916;-73
2022/05/08 08:37:23;;;;;;;;;;;;;;;24.37;15.06;100915.56;5116713;28;19988;-75
2022/05/08 08:39:48;;;;;;;;;;;;;;;24.36;14.92;100922.91;5116297;28;20391;-74
2022/05/08 08:42:27;;;;;;;;;;;;;;;24.36;14.80;100930.31;5115889;28;19927;-74
2022/05/08 08:47:45;;;;;;;;;;;;;;;24.34;14.79;100936.03;5116198;28;19922;-72
2022/05/08 08:50:11;;;;;;;;;;;;;;;24.35;14.59;100937.69;5116038;28;19979;-74
2022/05/08 08:52:36;;;;;;;;;;;;;;;24.34;14.58;100936.03;5116291;28;19927;-75
2022/05/08 08:55:02;;;;;;;;;;;;;;;24.34;14.56;100940.69;5116116;28;20387;-74
2022/05/08 08:57:27;;;;;;;;;;;;;;;24.36;14.76;100943.97;5116152;28;19984;-76
2022/05/08 08:59:52;;;;;;;;;;;;;;;24.39;14.66;100948.91;5136635;27;19922;-75
2022/05/08 09:02:18;;;;;;;;;;;;;;;24.40;14.56;100945.06;5136722;27;19921;-73
2022/05/08 09:04:54;;;;;;;;;;;;;;;24.41;14.47;100940.44;5136240;27;19962;-74
2022/05/08 09:07:38;;;;;;;;;;;;;;;24.42;14.28;100942.88;5136407;27;19930;-75
2022/05/08 09:10:06;;;;;;;;;;;;;;;24.45;14.33;100944.28;5136397;27;19915;-75
2022/05/08 09:12:31;;;;;;;;;;;;;;;24.45;14.58;100936.88;5136412;27;19976;-74
2022/05/08 09:14:56;;;;;;;;;;;;;;;24.46;14.41;100946.75;5136300;27;20307;-76
2022/05/08 09:17:22;;;;;;;;;;;;;;;24.47;14.11;100948.38;5136026;27;19990;-74
2022/05/08 09:19:47;;;;;;;;;;;;;;;24.46;14.35;100954.13;5136065;27;19926;-76
2022/05/08 09:22:15;;;;;;;;;;;;;;;24.44;14.27;100962.59;5136279;27;19915;-73
2022/05/08 09:24:53;;;;;;;;;;;;;;;24.45;14.23;100964.22;5135738;27;19919;-75
2022/05/08 09:27:18;;;;;;;;;;;;;;;24.45;14.15;100963.38;5136148;27;20013;-74
2022/05/08 09:29:44;;;;;;;;;;;;;;;24.46;14.13;100971.31;5135867;27;19961;-74
2022/05/08 09:32:09;;;;;;;;;;;;;;;24.47;13.94;100964.75;5135760;27;19922;-75
2022/05/08 09:34:53;;;;;;;;;;;;;;;24.48;14.00;100969.16;5135887;27;19915;-73
2022/05/08 09:37:18;;;;;;;;;;;;;;;24.50;14.04;100975.16;5135628;27;19968;-74
2022/05/08 09:39:43;;;;;;;;;;;;;;;24.52;14.01;100980.34;5135590;27;19919;-75
2022/05/08 09:42:23;;;;;;;;;;;;;;;24.52;13.89;100986.63;5117524;27;19923;-74
2022/05/08 09:45:02;;;;;;;;;;;;;;;24.53;14.05;100980.09;5117340;27;19923;-74
2022/05/08 09:47:43;;;;;;;;;;;;;;;24.53;13.79;100982.00;5135831;27;19915;-73
2022/05/08 09:50:09;;;;;;;;;;;;;;;24.54;13.72;100994.59;5135719;27;20068;-74
2022/05/08 09:52:35;;;;;;;;;;;;;;;24.49;13.58;100978.16;5135143;27;20391;-74
2022/05/08 09:55:01;;;;;;;;;;;;;;;24.55;13.79;100983.41;5117137;27;19923;-74
2022/05/08 09:57:26;;;;;;;;;;;;;;;24.55;13.66;100986.13;5136110;27;20077;-73
2022/05/08 09:59:52;;;;;;;;;;;;;;;24.58;13.86;101003.09;5135574;27;19915;-73
2022/05/08 10:02:17;;;;;;;;;;;;;;;24.54;13.66;100995.44;5135376;27;19916;-74
2022/05/08 10:04:43;;;;;;;;;;;;;;;24.56;13.58;101003.38;5135124;27;19923;-73
2022/05/08 10:07:09;;;;;;;;;;;;;;;24.57;13.53;100998.72;5135518;27;20322;-73
2022/05/08 10:15:20;;;;;;;;;;;;;;;24.52;13.41;100996.75;5119623;27;19922;-73
2022/05/08 10:17:45;;;;;;;;;;;;;;;24.54;13.65;101011.00;5135049;27;19975;-75
2022/05/08 10:20:11;;;;;;;;;;;;;;;24.52;13.54;101000.28;5116696;27;20005;-76
2022/05/08 10:22:46;;;;;;;;;;;;;;;24.53;13.55;101007.41;5135186;27;20262;-74
2022/05/08 10:25:15;;;;;;;;;;;;;;;24.55;13.33;101007.19;5134769;27;19920;-74
2022/05/08 10:27:40;;;;;;;;;;;;;;;24.55;13.58;101013.47;5135162;27;19923;-74
2022/05/08 10:30:05;;;;;;;;;;;;;;;24.54;13.49;101020.03;5135123;27;19916;-74
2022/05/08 10:32:31;;;;;;;;;;;;;;;24.51;13.41;101022.44;5135182;27;19955;-73
2022/05/08 10:35:09;;;;;;;;;;;;;;;24.50;13.33;101024.34;5134867;28;20426;-75
2022/05/08 10:37:35;;;;;;;;;;;;;;;24.51;13.30;101016.97;5135148;28;19922;-75
2022/05/08 10:40:01;;;;;;;;;;;;;;;24.51;13.45;101012.34;5135087;28;20252;-73
2022/05/08 10:42:33;;;;;;;;;;;;;;;24.51;13.42;101017.78;5116569;28;19916;-74
2022/05/08 10:44:59;;;;;;;;;;;;;;;24.53;13.42;101023.00;5134671;28;19961;-75
2022/05/08 10:47:34;;;;;;;;;;;;;;;24.53;13.13;101026.53;5134932;28;19920;-74
2022/05/08 10:50:03;;;;;;;;;;;;;;;24.55;13.14;101024.41;5134665;28;19920;-75
2022/05/08 10:52:30;;;;;;;;;;;;;;;24.55;13.49;101037.25;5134984;28;19915;-74
2022/05/08 10:54:58;;;;;;;;;;;;;;;24.53;13.30;101037.47;5134515;28;19923;-74
2022/05/08 10:57:30;;;;;;;;;;;;;;;24.51;13.33;101031.47;5134804;28;20386;-74
2022/05/08 10:59:55;;;;;;;;;;;;;;;24.51;13.21;101026.00;5134816;28;20312;-74
2022/05/08 11:02:39;;;;;;;;;;;;;;;24.50;13.10;101032.53;5134773;28;19947;-75
2022/05/08 11:05:05;;;;;;;;;;;;;;;24.48;12.90;101031.97;5137611;27;19920;-75
2022/05/08 11:07:31;;;;;;;;;;;;;;;24.46;13.18;101041.53;5138915;27;19980;-74
2022/05/08 11:09:56;;;;;;;;;;;;;;;24.45;12.95;101037.97;5138568;27;19915;-74
2022/05/08 11:12:21;;;;;;;;;;;;;;;24.45;12.92;101040.69;5138781;27;19967;-74
2022/05/08 11:14:46;;;;;;;;;;;;;;;24.44;13.02;101028.16;5138635;27;20362;-74
2022/05/08 11:17:15;;;;;;;;;;;;;;;24.46;12.98;101041.53;5138781;27;19915;-75
2022/05/08 11:19:51;;;;;;;;;;;;;;;24.46;13.08;101041.53;5120260;27;19916;-74
2022/05/08 11:22:16;;;;;;;;;;;;;;;24.45;12.88;101042.63;5138632;27;19967;-74
2022/05/08 11:24:42;;;;;;;;;;;;;;;24.45;12.77;101040.69;5138357;27;20378;-75
2022/05/08 11:27:13;;;;;;;;;;;;;;;24.43;13.10;101053.81;5138429;27;20017;-73
2022/05/08 11:29:45;;;;;;;;;;;;;;;24.43;13.13;101053.00;5138396;27;19916;-74
2022/05/08 11:37:59;;;;;;;;;;;;;;;24.39;13.25;101047.25;5054862;28;19923;-75
2022/05/08 11:40:24;;;;;;;;;;;;;;;24.39;13.11;101047.25;5054807;28;20015;-73
2022/05/08 11:42:49;;;;;;;;;;;;;;;24.41;12.96;101045.06;5037865;28;19924;-75
2022/05/08 11:45:14;;;;;;;;;;;;;;;24.40;12.89;101045.31;5054555;28;20363;-73
2022/05/08 11:47:40;;;;;;;;;;;;;;;24.41;13.04;101039.59;5054542;28;19917;-74
2022/05/08 11:50:05;;;;;;;;;;;;;;;24.41;12.81;101038.78;5054500;28;19924;-72
2022/05/08 11:52:31;;;;;;;;;;;;;;;24.41;12.86;101056.00;5054530;28;19999;-75
2022/05/08 11:54:59;;;;;;;;;;;;;;;24.40;12.97;101054.34;5054274;28;19956;-74
2022/05/08 11:57:24;;;;;;;;;;;;;;;24.40;12.84;101054.34;5037824;28;20024;-74
2022/05/08 11:59:51;;;;;;;;;;;;;;;24.38;12.99;101051.84;5054336;28;19917;-75
2022/05/08 12:02:16;;;;;;;;;;;;;;;24.38;13.06;101056.50;5037704;28;19917;-73
2022/05/08 12:04:54;;;;;;;;;;;;;;;24.38;13.12;101051.03;5054199;28;19966;-75
2022/05/08 12:07:19;;;;;;;;;;;;;;;24.37;13.19;101052.97;5117280;28;20282;-74
2022/05/08 12:09:44;;;;;;;;;;;;;;;24.37;13.18;101043.94;5117159;28;19922;-75
2022/05/08 12:12:23;;;;;;;;;;;;;;;24.38;13.15;101051.03;5117090;28;20347;-72
2022/05/08 12:14:48;;;;;;;;;;;;;;;24.38;12.90;101045.59;5116569;28;19926;-73
2022/05/08 12:17:14;;;;;;;;;;;;;;;24.38;13.01;101054.59;5116074;28;19920;-75
2022/05/08 12:19:48;;;;;;;;;;;;;;;24.38;12.63;101064.69;5116516;28;19915;-73
2022/05/08 12:22:21;;;;;;;;;;;;;;;24.40;12.88;101059.78;5117049;28;19941;-73
2022/05/08 12:24:46;;;;;;;;;;;;;;;24.38;12.65;101075.63;5116666;28;19981;-75
2022/05/08 12:27:11;;;;;;;;;;;;;;;24.39;12.45;101074.56;5116484;28;20354;-73
2022/05/08 12:29:37;;;;;;;;;;;;;;;24.36;12.58;101075.06;5116869;28;19935;-75
2022/05/08 12:32:02;;;;;;;;;;;;;;;24.36;12.67;101075.06;5116769;28;20422;-73
2022/05/08 12:34:29;;;;;;;;;;;;;;;24.36;12.73;101070.44;5116228;28;19916;-74
2022/05/08 12:36:54;;;;;;;;;;;;;;;24.36;12.63;101069.63;5116711;28;19920;-73
2022/05/08 12:39:19;;;;;;;;;;;;;;;24.36;12.49;101075.06;5116559;28;20377;-74
2022/05/08 12:41:45;;;;;;;;;;;;;;;24.35;12.52;101084.34;5116180;28;20016;-73
2022/05/08 12:44:10;;;;;;;;;;;;;;;24.36;12.54;101086.00;5116378;28;19919;-73
2022/05/08 12:46:35;;;;;;;;;;;;;;;24.36;12.71;101096.94;5116092;28;19915;-75
2022/05/08 12:49:03;;;;;;;;;;;;;;;24.34;12.57;101090.91;5133940;27;19916;-72
2022/05/08 12:51:29;;;;;;;;;;;;;;;24.32;12.57;101099.38;5136846;27;19924;-75
2022/05/08 12:53:55;;;;;;;;;;;;;;;24.32;12.77;101090.34;5136451;27;19922;-72
2022/05/08 12:56:20;;;;;;;;;;;;;;;24.30;12.65;101096.09;5136550;27;20006;-74
2022/05/08 13:01:29;;;;;;;;;;;;;;;24.28;12.71;101091.94;5136598;27;20384;-74
2022/05/08 13:03:54;;;;;;;;;;;;;;;24.28;12.74;101097.41;5136579;27;19919;-74
2022/05/08 13:06:20;;;;;;;;;;;;;;;24.29;12.88;101113.53;5136471;27;19915;-72